Time;durP1;ratioP1;P1;durP2;ratioP2;P2;SDS_P1;SDS_P2;PMS_P1;PMS_P2;Temp;Humidity;BMP_temperature;BMP_pressure;BME280_temperature;BME280_humidity;BME280_pressure;Samples;Min_cycle;Max_cycle;Signal;HPM_P1;HPM_P2
2021/12/21 00:00:26;;;;;;;7.18;3.28;;;;;;;7.63;42.86;102337.69;5026660;28;20508;-77
2021/12/21 00:02:54;;;;;;;6.20;3.50;;;;;;;7.62;42.60;102335.94;5027607;28;20061;-77
2021/12/21 00:05:25;;;;;;;5.80;3.42;;;;;;;7.61;42.87;102336.84;5028779;28;20080;-77
2021/12/21 00:07:54;;;;;;;7.00;3.53;;;;;;;7.59;42.80;102339.59;5025631;28;20103;-77
2021/12/21 00:10:24;;;;;;;7.32;3.60;;;;;;;7.58;42.89;102329.72;5028746;28;20164;-77
2021/12/21 00:15:36;;;;;;;6.25;3.35;;;;;;;7.54;42.68;102333.47;5037626;28;20064;-77
2021/12/21 00:18:16;;;;;;;8.95;3.53;;;;;;;7.53;43.12;102330.81;5007812;28;20108;-77
2021/12/21 00:23:34;;;;;;;6.10;3.55;;;;;;;7.51;42.95;102335.38;5026855;28;20048;-77
2021/12/21 00:26:06;;;;;;;6.95;3.47;;;;;;;7.50;42.84;102334.47;5001788;28;20050;-77
2021/12/21 00:28:39;;;;;;;7.32;3.55;;;;;;;7.50;42.87;102330.88;5006968;28;20072;-77
2021/12/21 00:31:06;;;;;;;6.43;3.35;;;;;;;7.48;42.87;102322.84;5028633;28;20135;-77
2021/12/21 00:33:33;;;;;;;6.28;3.60;;;;;;;7.46;42.91;102319.31;5027721;28;20103;-77
2021/12/21 00:35:59;;;;;;;6.68;3.50;;;;;;;7.44;43.05;102320.28;5018924;28;20103;-77
2021/12/21 00:38:26;;;;;;;7.15;3.50;;;;;;;7.42;42.98;102314.91;5027203;28;20084;-77
2021/12/21 00:40:53;;;;;;;7.15;3.45;;;;;;;7.42;43.14;102316.72;5028323;28;20057;-77
2021/12/21 00:43:20;;;;;;;6.35;3.40;;;;;;;7.39;43.08;102316.84;5028662;28;20046;-77
2021/12/21 00:45:46;;;;;;;6.78;3.60;;;;;;;7.37;43.03;102313.28;5036981;28;20100;-78
2021/12/21 00:48:15;;;;;;;7.00;3.50;;;;;;;7.35;43.00;102312.44;5029616;28;20100;-77
2021/12/21 00:50:42;;;;;;;6.53;3.75;;;;;;;7.32;43.13;102309.84;5031112;28;20045;-77
2021/12/21 00:53:09;;;;;;;5.40;3.15;;;;;;;7.31;42.93;102317.06;5023949;28;20074;-77
2021/12/21 00:55:36;;;;;;;6.05;3.50;;;;;;;7.29;43.10;102310.81;5026573;28;20049;-77
2021/12/21 00:58:03;;;;;;;6.35;3.88;;;;;;;7.28;42.98;102306.34;5030459;28;20097;-77
2021/12/21 01:00:30;;;;;;;6.63;3.20;;;;;;;7.26;43.18;102309.09;5031285;28;20046;-77
2021/12/21 01:03:01;;;;;;;7.22;3.90;;;;;;;7.24;43.18;102300.16;5031133;28;20072;-77
2021/12/21 01:05:43;;;;;;;9.40;4.20;;;;;;;7.23;42.93;102300.22;5035310;28;20103;-77
2021/12/21 01:08:14;;;;;;;6.75;3.55;;;;;;;7.20;43.17;102301.19;5028880;28;20099;-77
2021/12/21 01:13:39;;;;;;;7.35;4.03;;;;;;;7.17;43.27;102293.16;5029742;28;20069;-77
2021/12/21 01:16:33;;;;;;;8.80;4.63;;;;;;;7.15;43.19;102300.44;5031466;28;20073;-77
2021/12/21 01:21:38;;;;;;;11.70;4.38;;;;;;;7.11;43.39;102290.66;5034523;28;20041;-77
2021/12/21 01:30:00;;;;;;;10.65;4.45;;;;;;;7.06;43.04;102299.81;5023850;28;20053;-78
2021/12/21 01:35:39;;;;;;;8.10;3.92;;;;;;;6.99;43.32;102291.03;5020267;28;20104;-77
2021/12/21 01:38:32;;;;;;;8.25;3.95;;;;;;;6.99;43.31;102299.13;5009418;28;20045;-77
2021/12/21 01:41:10;;;;;;;8.55;4.05;;;;;;;6.96;43.25;102299.19;5032640;28;20095;-77
2021/12/21 01:43:43;;;;;;;7.80;4.05;;;;;;;6.95;43.59;102293.84;5032691;28;20452;-78
2021/12/21 01:51:48;;;;;;;7.90;4.25;;;;;;;6.91;43.46;102294.88;5025136;28;20072;-78
2021/12/21 01:54:15;;;;;;;7.22;3.83;;;;;;;6.90;43.30;102296.69;5031821;28;20158;-78
2021/12/21 01:56:42;;;;;;;10.00;4.15;;;;;;;6.90;43.46;102295.78;5033464;28;20041;-77
2021/12/21 01:59:09;;;;;;;7.85;3.65;;;;;;;6.90;43.29;102295.78;5033503;28;20137;-77
2021/12/21 02:01:36;;;;;;;8.02;3.70;;;;;;;6.87;43.62;102292.25;5033560;28;20073;-77
2021/12/21 02:04:03;;;;;;;7.60;3.75;;;;;;;6.87;43.36;102296.75;5033534;28;20073;-77
2021/12/21 02:06:29;;;;;;;6.38;3.72;;;;;;;6.87;43.55;102297.66;5033012;28;20038;-78
2021/12/21 02:08:56;;;;;;;6.97;3.53;;;;;;;6.87;43.55;102291.34;5028094;28;20041;-77
2021/12/21 02:11:23;;;;;;;7.72;3.95;;;;;;;6.87;43.47;102292.25;5033757;28;20045;-78
2021/12/21 02:13:51;;;;;;;8.50;3.42;;;;;;;6.86;43.53;102287.78;5016059;28;20084;-78
2021/12/21 02:16:28;;;;;;;8.18;3.83;;;;;;;6.86;43.17;102292.28;5044162;28;20095;-77
2021/12/21 02:19:02;;;;;;;6.88;3.53;;;;;;;6.82;43.31;102290.63;5022650;28;20473;-77
2021/12/21 02:24:02;;;;;;;6.13;3.60;;;;;;;6.78;43.46;102284.41;5030858;28;20045;-77
2021/12/21 02:29:24;;;;;;;8.70;3.60;;;;;;;6.74;43.44;102279.16;5029919;28;20513;-77
2021/12/21 02:31:53;;;;;;;6.70;3.53;;;;;;;6.73;43.17;102278.25;5029397;28;20481;-77
2021/12/21 02:34:21;;;;;;;7.82;3.85;;;;;;;6.72;43.55;102278.31;5029486;28;20095;-77
2021/12/21 02:36:50;;;;;;;9.05;4.13;;;;;;;6.69;43.57;102279.25;5028786;28;20103;-78
2021/12/21 02:39:21;;;;;;;8.55;4.55;;;;;;;6.68;43.72;102276.59;5028523;28;20441;-77
2021/12/21 02:41:48;;;;;;;7.90;4.32;;;;;;;6.65;43.35;102272.19;5029951;28;20045;-77
2021/12/21 02:44:15;;;;;;;10.05;4.70;;;;;;;6.64;43.47;102280.34;5028215;28;20037;-77
2021/12/21 02:46:43;;;;;;;10.45;4.30;;;;;;;6.64;43.62;102283.03;5039005;28;20531;-77
2021/12/21 02:49:11;;;;;;;9.60;4.13;;;;;;;6.62;43.44;102274.97;5029580;28;21389;-77
2021/12/21 02:51:40;;;;;;;8.82;4.50;;;;;;;6.61;43.50;102280.41;5028066;28;20417;-78
2021/12/21 02:54:08;;;;;;;9.43;4.65;;;;;;;6.59;43.56;102282.28;5008097;28;20080;-77
2021/12/21 02:56:35;;;;;;;8.57;4.70;;;;;;;6.58;43.51;102273.31;5029101;28;20045;-77
2021/12/21 02:59:01;;;;;;;9.80;4.35;;;;;;;6.56;43.71;102272.44;5024552;28;20069;-77
2021/12/21 03:01:29;;;;;;;9.77;4.72;;;;;;;6.56;43.40;102277.84;5038975;28;20050;-77
2021/12/21 03:03:57;;;;;;;7.97;4.05;;;;;;;6.56;43.51;102276.97;5010353;28;20049;-77
2021/12/21 03:06:59;;;;;;;8.85;4.32;;;;;;;6.53;43.52;102274.34;5011581;28;20057;-78
2021/12/21 03:11:48;;;;;;;8.63;4.20;;;;;;;6.46;43.41;102271.81;5028288;28;20104;-77
2021/12/21 03:14:15;;;;;;;7.45;3.95;;;;;;;6.48;43.54;102269.06;5030889;28;20057;-77
2021/12/21 03:16:41;;;;;;;8.63;4.15;;;;;;;6.47;43.50;102270.00;5024364;28;20548;-77
2021/12/21 03:19:10;;;;;;;8.35;3.90;;;;;;;6.45;43.64;102263.75;5028945;28;20050;-78
2021/12/21 03:21:38;;;;;;;7.40;3.80;;;;;;;6.44;43.56;102264.69;5027764;28;20111;-78
2021/12/21 03:24:06;;;;;;;7.15;4.15;;;;;;;6.42;43.74;102262.00;5029437;28;20473;-77
2021/12/21 03:26:32;;;;;;;9.40;4.35;;;;;;;6.41;43.47;102267.47;5027756;28;20448;-78
2021/12/21 03:28:59;;;;;;;10.48;4.40;;;;;;;6.39;43.68;102259.41;5028583;28;20509;-78
2021/12/21 03:31:29;;;;;;;10.23;4.25;;;;;;;6.37;43.70;102263.97;5029104;28;20073;-77
2021/12/21 03:33:55;;;;;;;9.77;4.75;;;;;;;6.37;43.45;102268.47;5029016;28;20721;-77
2021/12/21 03:36:23;;;;;;;10.55;4.88;;;;;;;6.35;43.39;102262.22;5027755;28;20585;-77
2021/12/21 03:39:00;;;;;;;8.85;4.45;;;;;;;6.34;43.67;102266.72;5028077;28;20075;-77
2021/12/21 03:41:27;;;;;;;9.75;4.30;;;;;;;6.32;43.65;102262.31;5043385;28;20042;-78
2021/12/21 03:43:55;;;;;;;8.35;4.43;;;;;;;6.31;43.90;102260.56;5027787;28;20068;-77
2021/12/21 03:46:24;;;;;;;9.30;4.57;;;;;;;6.30;43.63;102267.75;5028904;28;20140;-77
2021/12/21 03:48:51;;;;;;;7.07;4.45;;;;;;;6.30;43.76;102258.78;5027246;28;20550;-78
2021/12/21 03:51:19;;;;;;;8.93;4.30;;;;;;;6.30;43.76;102261.47;5027660;28;20107;-78
2021/12/21 03:53:47;;;;;;;9.68;4.65;;;;;;;6.29;43.87;102259.69;5018561;28;20041;-78
2021/12/21 03:58:41;;;;;;;8.48;3.90;;;;;;;6.27;43.69;102256.16;5027993;28;20065;-77
2021/12/21 04:01:08;;;;;;;8.38;3.90;;;;;;;6.26;43.86;102255.25;5027114;28;20072;-78
2021/12/21 04:03:36;;;;;;;6.90;4.03;;;;;;;6.27;43.99;102258.84;5028841;28;20083;-78
2021/12/21 04:06:03;;;;;;;6.65;3.65;;;;;;;6.26;43.68;102255.25;5035798;28;20047;-77
2021/12/21 04:08:31;;;;;;;10.75;4.20;;;;;;;6.25;43.83;102258.91;5026745;28;20049;-77
2021/12/21 04:10:58;;;;;;;7.93;3.67;;;;;;;6.25;43.61;102258.91;5035006;28;20065;-77
2021/12/21 04:13:24;;;;;;;7.18;3.55;;;;;;;6.24;43.73;102251.75;5028772;28;20100;-77
2021/12/21 04:15:53;;;;;;;8.18;4.35;;;;;;;6.24;43.98;102248.16;5034056;28;20084;-77
2021/12/21 04:18:23;;;;;;;7.20;4.03;;;;;;;6.23;43.67;102254.47;5027414;28;20042;-77
2021/12/21 04:20:50;;;;;;;8.73;4.18;;;;;;;6.22;43.69;102248.19;5027363;28;20085;-77
2021/12/21 04:23:17;;;;;;;7.93;3.78;;;;;;;6.20;43.82;102250.03;5026749;28;20049;-77
2021/12/21 04:25:44;;;;;;;6.95;4.03;;;;;;;6.20;43.70;102246.47;5010613;28;20576;-78
2021/12/21 04:28:11;;;;;;;7.38;3.97;;;;;;;6.19;43.70;102250.97;5027972;28;20077;-77
2021/12/21 04:30:38;;;;;;;7.88;3.88;;;;;;;6.16;43.71;102244.78;5027826;28;20156;-77
2021/12/21 04:33:04;;;;;;;7.95;4.18;;;;;;;6.13;43.65;102243.03;5028408;28;20144;-77
2021/12/21 04:35:33;;;;;;;8.05;4.00;;;;;;;6.11;43.79;102244.88;5028957;28;20111;-77
2021/12/21 04:38:12;;;;;;;7.63;3.80;;;;;;;6.09;43.65;102242.22;5011870;28;20077;-77
2021/12/21 04:40:44;;;;;;;6.57;3.70;;;;;;;6.06;44.00;102236.03;5030044;28;20075;-77
2021/12/21 04:43:11;;;;;;;6.70;3.70;;;;;;;6.04;43.71;102238.78;5014556;28;20058;-77
2021/12/21 04:45:37;;;;;;;7.22;3.78;;;;;;;6.03;43.79;102234.31;5037880;28;20136;-77
2021/12/21 04:48:04;;;;;;;7.95;3.55;;;;;;;6.02;43.95;102228.94;5030301;28;20108;-77
2021/12/21 04:50:31;;;;;;;7.18;3.78;;;;;;;6.00;43.87;102231.72;5032542;28;20052;-77
2021/12/21 04:52:58;;;;;;;6.60;3.33;;;;;;;6.00;43.71;102234.41;5031759;28;20558;-77
2021/12/21 04:55:25;;;;;;;6.53;3.47;;;;;;;5.99;43.91;102234.44;5031883;28;20053;-77
2021/12/21 04:57:51;;;;;;;7.80;3.47;;;;;;;5.99;43.98;102231.75;5030674;28;20080;-77
2021/12/21 05:00:18;;;;;;;6.75;3.50;;;;;;;5.98;43.89;102224.56;5032138;28;20091;-77
2021/12/21 05:02:45;;;;;;;5.45;3.28;;;;;;;5.97;43.97;102239.88;5030936;28;20119;-77
2021/12/21 05:05:12;;;;;;;7.53;3.55;;;;;;;5.96;43.64;102231.81;5031849;28;20400;-77
2021/12/21 05:07:40;;;;;;;6.32;3.25;;;;;;;5.95;44.03;102243.50;5045352;28;20069;-77
2021/12/21 05:10:09;;;;;;;7.28;3.75;;;;;;;5.94;43.64;102241.75;5014033;28;20123;-77
2021/12/21 05:12:36;;;;;;;8.30;3.92;;;;;;;5.91;43.86;102237.34;5029262;28;20444;-77
2021/12/21 05:15:04;;;;;;;9.27;3.63;;;;;;;5.91;43.97;102241.84;5022579;28;20053;-78
2021/12/21 05:17:31;;;;;;;7.32;3.63;;;;;;;5.90;43.62;102242.75;5030181;28;20374;-78
2021/12/21 05:19:58;;;;;;;9.98;3.90;;;;;;;5.86;43.80;102239.22;5032215;28;20519;-78
2021/12/21 05:22:26;;;;;;;7.35;3.60;;;;;;;5.85;43.85;102242.81;5030759;28;20080;-78
2021/12/21 05:24:53;;;;;;;6.38;3.83;;;;;;;5.83;44.15;102243.81;5029902;28;20064;-77
2021/12/21 05:27:21;;;;;;;6.88;3.65;;;;;;;5.78;44.29;102245.72;5029626;28;20045;-77
2021/12/21 05:29:47;;;;;;;6.10;3.58;;;;;;;5.77;44.13;102246.63;5014467;28;20075;-77
2021/12/21 05:32:14;;;;;;;7.18;3.75;;;;;;;5.73;44.15;102248.53;5030251;28;20038;-78
2021/12/21 05:34:41;;;;;;;6.38;3.17;;;;;;;5.69;44.17;102241.44;5032031;28;20054;-78
2021/12/21 05:37:07;;;;;;;7.22;3.75;;;;;;;5.68;44.08;102247.78;5028463;28;20050;-78
2021/12/21 05:39:50;;;;;;;7.53;4.00;;;;;;;5.66;44.21;102246.91;5031151;28;20081;-78
2021/12/21 05:42:17;;;;;;;7.60;3.67;;;;;;;5.61;44.09;102251.50;5001593;28;20045;-78
2021/12/21 05:44:44;;;;;;;6.60;3.63;;;;;;;5.61;44.43;102246.13;5033188;28;20092;-78
2021/12/21 05:47:10;;;;;;;6.57;3.55;;;;;;;5.58;44.35;102243.53;5028302;28;20045;-78
2021/12/21 05:49:37;;;;;;;7.55;3.78;;;;;;;5.55;44.33;102248.97;5013640;28;20132;-78
2021/12/21 05:52:04;;;;;;;6.68;3.50;;;;;;;5.52;44.50;102249.91;5012471;28;20041;-78
2021/12/21 05:54:31;;;;;;;7.20;3.55;;;;;;;5.48;44.24;102242.84;5030918;28;20100;-77
2021/12/21 05:56:58;;;;;;;7.57;3.92;;;;;;;5.45;44.30;102248.31;5028852;28;20052;-77
2021/12/21 05:59:25;;;;;;;7.30;3.40;;;;;;;5.44;44.43;102251.03;5031042;28;20045;-77
2021/12/21 06:01:52;;;;;;;7.10;3.83;;;;;;;5.40;44.47;102255.63;5028759;28;20049;-78
2021/12/21 06:04:18;;;;;;;7.53;3.63;;;;;;;5.38;44.39;102253.88;5018812;28;20041;-77
2021/12/21 06:06:45;;;;;;;8.63;3.83;;;;;;;5.35;44.40;102255.69;5030884;28;20136;-77
2021/12/21 06:09:13;;;;;;;7.70;3.90;;;;;;;5.33;44.51;102252.19;5026423;28;20045;-78
2021/12/21 06:11:51;;;;;;;7.20;3.47;;;;;;;5.33;44.65;102262.94;5023402;28;20447;-77
2021/12/21 06:14:36;;;;;;;7.10;3.85;;;;;;;5.30;44.54;102257.63;5005792;28;20091;-77
2021/12/21 06:25:37;;;;;;;9.55;4.05;;;;;;;5.22;44.73;102256.03;5025378;28;20148;-77
2021/12/21 06:28:06;;;;;;;7.22;3.88;;;;;;;5.20;44.71;102265.94;5029322;28;20065;-77
2021/12/21 06:30:34;;;;;;;8.13;4.07;;;;;;;5.19;44.91;102261.50;5029566;28;20061;-76
2021/12/21 06:33:01;;;;;;;9.18;4.53;;;;;;;5.17;44.76;102257.94;5029436;28;20081;-77
2021/12/21 06:35:28;;;;;;;6.70;3.50;;;;;;;5.14;44.97;102252.63;5029122;28;20107;-77
2021/12/21 06:37:55;;;;;;;8.60;4.20;;;;;;;5.11;44.88;102250.88;5028281;28;20073;-77
2021/12/21 06:40:22;;;;;;;8.57;3.60;;;;;;;5.11;44.94;102260.75;5030380;28;20129;-76
2021/12/21 06:42:50;;;;;;;6.43;3.60;;;;;;;5.08;44.90;102255.44;5007407;28;20500;-76
2021/12/21 06:46:11;;;;;;;8.75;4.07;;;;;;;5.07;44.88;102261.75;5029475;28;20057;-77
2021/12/21 06:51:22;;;;;;;7.90;4.03;;;;;;;5.03;44.99;102247.47;5020754;28;20076;-76
2021/12/21 06:53:52;;;;;;;8.00;4.15;;;;;;;5.01;45.07;102257.41;5029171;28;20103;-77
2021/12/21 06:56:25;;;;;;;6.65;3.75;;;;;;;5.01;44.97;102256.50;5012639;28;20041;-76
2021/12/21 06:58:54;;;;;;;8.18;4.03;;;;;;;5.00;44.95;102261.00;5022310;28;20046;-76
2021/12/21 07:01:25;;;;;;;9.85;4.10;;;;;;;4.99;45.17;102261.91;5027770;28;20049;-76
2021/12/21 07:03:51;;;;;;;8.18;4.57;;;;;;;4.97;44.94;102267.31;5035413;28;20045;-77
2021/12/21 07:06:19;;;;;;;7.90;4.30;;;;;;;4.97;45.01;102267.31;5010881;28;20149;-77
2021/12/21 07:19:17;;;;;;;7.85;4.60;;;;;;;4.88;45.17;102266.63;5021418;28;20046;-76
2021/12/21 07:21:43;;;;;;;5.82;4.00;;;;;;;4.86;45.26;102269.34;5028959;28;20042;-76
2021/12/21 07:24:10;;;;;;;9.48;5.00;;;;;;;4.85;45.25;102275.66;5028457;28;20042;-76
2021/12/21 07:26:37;;;;;;;9.23;4.85;;;;;;;4.85;45.34;102269.41;5028666;28;20505;-76
2021/12/21 07:29:04;;;;;;;9.95;5.10;;;;;;;4.86;45.08;102272.03;5026416;28;20091;-76
2021/12/21 07:31:32;;;;;;;7.35;4.50;;;;;;;4.84;45.41;102270.31;5028047;28;20045;-76
2021/12/21 07:33:58;;;;;;;8.02;4.50;;;;;;;4.84;45.09;102276.59;5028095;28;20351;-76
2021/12/21 07:36:26;;;;;;;8.07;4.60;;;;;;;4.84;45.36;102264.94;5011184;28;20049;-77
2021/12/21 07:38:53;;;;;;;9.65;4.57;;;;;;;4.83;45.43;102268.53;5028694;28;20049;-76
2021/12/21 07:41:20;;;;;;;8.20;4.43;;;;;;;4.82;45.28;102270.34;5026553;28;20091;-77
2021/12/21 07:43:47;;;;;;;15.52;7.85;;;;;;;4.83;45.23;102276.63;5028748;28;20123;-77
2021/12/21 07:46:13;;;;;;;11.75;7.40;;;;;;;4.81;45.26;102271.25;5026875;28;20104;-78
2021/12/21 07:48:41;;;;;;;12.02;5.95;;;;;;;4.81;45.14;102273.94;5027912;28;20049;-78
2021/12/21 07:51:08;;;;;;;9.20;5.30;;;;;;;4.81;45.39;102276.63;5031600;28;20046;-77
2021/12/21 07:53:36;;;;;;;9.88;5.03;;;;;;;4.81;45.14;102276.63;5029095;28;20045;-77
2021/12/21 07:56:04;;;;;;;7.40;4.55;;;;;;;4.79;45.55;102262.31;5023028;28;20049;-77
2021/12/21 07:58:33;;;;;;;7.00;4.03;;;;;;;4.81;45.36;102265.88;5026580;28;20111;-77
2021/12/21 08:01:03;;;;;;;8.40;4.22;;;;;;;4.80;45.44;102276.66;5024002;28;20041;-78
2021/12/21 08:03:34;;;;;;;7.45;4.35;;;;;;;4.80;45.29;102279.34;5012316;28;20046;-77
2021/12/21 08:06:04;;;;;;;7.50;4.20;;;;;;;4.79;45.47;102277.56;5029461;28;20053;-77
2021/12/21 08:08:31;;;;;;;9.15;4.50;;;;;;;4.78;45.19;102282.06;5005591;28;20154;-76
2021/12/21 08:14:00;;;;;;;7.38;3.90;;;;;;;4.76;45.65;102286.63;5013670;28;20072;-76
2021/12/21 08:16:27;;;;;;;10.43;4.88;;;;;;;4.77;45.85;102282.13;5026411;28;20045;-76
2021/12/21 08:18:54;;;;;;;9.80;4.97;;;;;;;4.78;45.43;102283.88;5026419;28;20053;-76
2021/12/21 08:21:23;;;;;;;10.68;5.30;;;;;;;4.78;45.85;102286.56;5026867;28;20053;-76
2021/12/21 08:23:49;;;;;;;9.10;4.60;;;;;;;4.79;45.78;102293.72;5010058;28;20042;-76
2021/12/21 08:26:16;;;;;;;8.93;4.32;;;;;;;4.79;45.63;102291.91;5026744;28;20042;-76
2021/12/21 08:28:43;;;;;;;6.63;4.00;;;;;;;4.79;45.91;102281.16;5024119;28;20045;-76
2021/12/21 08:31:13;;;;;;;7.95;4.40;;;;;;;4.81;45.85;102291.91;5027811;28;20405;-76
2021/12/21 08:33:41;;;;;;;7.43;4.25;;;;;;;4.81;46.06;102290.09;5028272;28;20444;-75
2021/12/21 08:36:10;;;;;;;7.13;4.18;;;;;;;4.83;45.80;102295.44;5027200;28;20566;-76
2021/12/21 08:38:40;;;;;;;7.88;3.92;;;;;;;4.84;46.05;102297.22;5027345;28;20041;-76
2021/12/21 08:41:07;;;;;;;7.57;4.00;;;;;;;4.83;45.92;102300.84;4997793;28;20046;-77
2021/12/21 08:43:35;;;;;;;8.23;4.15;;;;;;;4.82;46.05;102294.56;5020340;28;20145;-76
2021/12/21 08:46:03;;;;;;;6.13;3.55;;;;;;;4.83;46.08;102299.03;5025682;28;20500;-75
2021/12/21 08:48:31;;;;;;;6.72;3.50;;;;;;;4.84;45.82;102292.72;5011575;28;20508;-76
2021/12/21 08:51:00;;;;;;;8.38;3.95;;;;;;;4.85;46.04;102297.19;5024314;28;20045;-75
2021/12/21 08:53:27;;;;;;;6.93;3.67;;;;;;;4.86;46.13;102296.25;5023876;28;20041;-76
2021/12/21 08:55:54;;;;;;;7.18;3.63;;;;;;;4.90;46.43;102297.09;5035215;28;20142;-76
2021/12/21 08:58:22;;;;;;;6.88;3.92;;;;;;;4.90;46.35;102289.91;5033045;28;20577;-76
2021/12/21 09:00:50;;;;;;;6.95;3.70;;;;;;;4.93;46.56;102299.72;5029691;28;20046;-76
2021/12/21 09:03:17;;;;;;;6.65;3.65;;;;;;;4.94;46.82;102296.97;5020643;28;20049;-76
2021/12/21 09:05:44;;;;;;;11.82;4.22;;;;;;;4.97;46.56;102296.94;5027142;28;20128;-76
2021/12/21 09:08:11;;;;;;;9.63;4.15;;;;;;;4.98;46.24;102293.31;5023965;28;20524;-77
2021/12/21 09:10:39;;;;;;;10.00;4.53;;;;;;;5.01;46.75;102284.31;5027809;28;20483;-76
2021/12/21 09:13:09;;;;;;;7.47;4.03;;;;;;;5.04;46.84;102289.59;5026755;28;20037;-76
2021/12/21 09:15:36;;;;;;;7.15;3.95;;;;;;;5.05;46.72;102274.34;5047276;28;20054;-76
2021/12/21 09:18:04;;;;;;;8.95;4.40;;;;;;;5.08;46.90;102290.44;5023631;28;20045;-75
2021/12/21 09:20:31;;;;;;;8.50;4.25;;;;;;;5.10;46.96;102284.13;5025320;28;20550;-75
2021/12/21 09:22:59;;;;;;;7.88;4.05;;;;;;;5.14;46.93;102293.88;5025934;28;20497;-76
2021/12/21 09:25:29;;;;;;;6.20;3.90;;;;;;;5.20;47.13;102292.84;5029924;28;20057;-77
2021/12/21 09:27:56;;;;;;;6.30;3.80;;;;;;;5.22;47.37;102291.03;5023468;28;20049;-78
2021/12/21 09:30:25;;;;;;;7.47;4.30;;;;;;;5.30;47.12;102294.44;5031865;28;20095;-79
2021/12/21 09:32:51;;;;;;;7.97;4.07;;;;;;;5.33;47.42;102287.19;5024435;28;20077;-76
2021/12/21 09:35:19;;;;;;;7.40;4.28;;;;;;;5.38;47.38;102287.06;5014729;28;20410;-74
2021/12/21 09:37:45;;;;;;;9.18;4.43;;;;;;;5.43;47.43;102286.97;5025270;28;20779;-74
2021/12/21 09:40:19;;;;;;;5.93;3.63;;;;;;;5.51;47.34;102293.09;5028099;28;20049;-80
2021/12/21 09:42:47;;;;;;;8.35;4.00;;;;;;;5.56;47.22;102289.34;5046960;28;20056;-77
2021/12/21 09:45:14;;;;;;;7.90;4.07;;;;;;;5.61;47.24;102292.81;5031991;28;20046;-77
2021/12/21 09:47:42;;;;;;;5.55;3.20;;;;;;;5.66;47.19;102285.53;5029391;28;20049;-76
2021/12/21 09:50:12;;;;;;;6.05;3.70;;;;;;;5.71;46.97;102288.09;5026713;28;20069;-79
2021/12/21 09:52:40;;;;;;;8.68;3.70;;;;;;;5.75;47.06;102276.34;5029556;28;20497;-77
2021/12/21 09:55:10;;;;;;;6.68;3.53;;;;;;;5.79;46.89;102278.03;5031954;28;20045;-79
2021/12/21 09:57:37;;;;;;;6.95;3.90;;;;;;;5.82;47.06;102283.34;5029450;28;20509;-77
2021/12/21 10:00:08;;;;;;;7.60;3.72;;;;;;;5.86;47.03;102287.72;5035732;28;20136;-77
2021/12/21 10:02:35;;;;;;;6.30;3.38;;;;;;;5.88;46.96;102287.72;5031045;28;20061;-80
2021/12/21 10:05:09;;;;;;;7.20;3.50;;;;;;;5.93;46.66;102289.38;5025754;28;20061;-79
2021/12/21 10:07:39;;;;;;;7.20;3.42;;;;;;;5.97;47.02;102287.50;5020440;28;20072;-79
2021/12/21 10:10:06;;;;;;;4.93;2.97;;;;;;;6.01;46.97;102292.75;5012539;28;20069;-80
2021/12/21 10:12:36;;;;;;;6.28;3.83;;;;;;;6.06;47.03;102287.28;5029366;28;20124;-80
2021/12/21 10:15:23;;;;;;;6.65;3.22;;;;;;;6.10;46.67;102286.25;5033809;28;20141;-80
2021/12/21 10:17:59;;;;;;;5.85;3.35;;;;;;;6.15;46.52;102281.66;5028296;28;20076;-79
2021/12/21 10:20:30;;;;;;;8.30;3.97;;;;;;;6.20;46.93;102279.72;5023986;28;20048;-79
2021/12/21 10:22:58;;;;;;;7.10;3.30;;;;;;;6.22;47.02;102285.06;5029493;28;20092;-78
2021/12/21 10:25:26;;;;;;;6.03;3.45;;;;;;;6.27;46.82;102275.91;5029289;28;20045;-80
2021/12/21 10:27:53;;;;;;;5.75;3.38;;;;;;;6.31;47.29;102277.63;5028772;28;20119;-80
2021/12/21 10:30:19;;;;;;;8.00;4.10;;;;;;;6.36;46.95;102269.41;5029835;28;20481;-79
2021/12/21 10:32:53;;;;;;;5.85;3.05;;;;;;;6.45;46.98;102270.03;5012722;28;20057;-79
2021/12/21 10:35:28;;;;;;;8.05;3.85;;;;;;;6.49;47.19;102269.03;5012518;28;20115;-79
2021/12/21 10:38:03;;;;;;;7.72;3.72;;;;;;;6.53;47.28;102261.72;5035549;28;20088;-79
2021/12/21 10:40:30;;;;;;;8.80;3.80;;;;;;;6.61;47.24;102258.81;5030455;28;20539;-78
2021/12/21 10:43:03;;;;;;;7.93;4.07;;;;;;;6.68;46.53;102260.41;5029808;28;20060;-79
2021/12/21 10:45:39;;;;;;;7.93;4.13;;;;;;;6.72;46.84;102252.19;5022713;28;20057;-79
2021/12/21 10:48:15;;;;;;;7.68;3.85;;;;;;;6.77;46.84;102252.94;5029150;28;20041;-79
2021/12/21 10:50:51;;;;;;;6.45;3.67;;;;;;;6.84;46.91;102248.25;5030364;28;20049;-79
2021/12/21 10:53:27;;;;;;;5.75;3.50;;;;;;;6.92;46.16;102246.19;5030029;28;20042;-79
2021/12/21 10:56:08;;;;;;;8.93;3.65;;;;;;;7.00;45.98;102246.00;5045366;28;20057;-79
2021/12/21 10:58:42;;;;;;;7.03;3.55;;;;;;;7.06;46.07;102251.22;5029581;28;20037;-79
2021/12/21 11:01:11;;;;;;;5.35;3.05;;;;;;;7.11;46.52;102255.53;5045072;28;20041;-79
2021/12/21 11:03:53;;;;;;;6.03;3.30;;;;;;;7.19;45.67;102239.09;5027001;28;20512;-79
2021/12/21 11:06:26;;;;;;;6.35;3.17;;;;;;;7.22;46.47;102241.72;4999059;28;20122;-79
2021/12/21 11:08:54;;;;;;;4.85;3.05;;;;;;;7.27;46.34;102237.03;5027466;28;20077;-80
2021/12/21 11:11:37;;;;;;;5.25;3.17;;;;;;;7.37;45.62;102235.81;5029586;28;20115;-80
2021/12/21 11:14:13;;;;;;;4.90;2.90;;;;;;;7.42;45.87;102225.75;5028302;28;20076;-78
2021/12/21 11:16:43;;;;;;;6.22;3.38;;;;;;;7.51;46.57;102221.88;5020131;28;20049;-78
2021/12/21 11:19:14;;;;;;;6.50;3.20;;;;;;;7.61;46.16;102224.22;5029114;28;20049;-78
2021/12/21 11:21:42;;;;;;;6.30;3.03;;;;;;;7.70;46.28;102224.84;5029838;28;20076;-79
2021/12/21 11:24:12;;;;;;;6.43;2.88;;;;;;;7.81;46.31;102222.69;5030212;28;20065;-79
2021/12/21 11:26:41;;;;;;;5.47;2.80;;;;;;;7.91;46.14;102218.72;5029821;28;20409;-78
2021/12/21 11:29:11;;;;;;;4.32;2.78;;;;;;;8.00;46.25;102213.00;5016504;28;20087;-78
2021/12/21 11:31:48;;;;;;;5.97;3.10;;;;;;;8.08;46.04;102208.19;5044235;28;20108;-78
2021/12/21 11:34:20;;;;;;;6.00;3.33;;;;;;;8.17;46.01;102207.88;5030392;28;20056;-77
2021/12/21 11:39:40;;;;;;;8.33;3.60;;;;;;;8.33;46.24;102202.84;5029718;28;20053;-79
2021/12/21 11:42:10;;;;;;;5.40;3.05;;;;;;;8.45;45.64;102193.41;5025315;28;20296;-79
2021/12/21 11:45:07;;;;;;;3.97;2.60;;;;;;;8.53;44.92;102191.31;5023417;28;20128;-77
2021/12/21 11:47:57;;;;;;;5.05;2.80;;;;;;;8.62;44.99;102193.66;5016077;28;20135;-79
2021/12/21 11:50:26;;;;;;;5.93;2.85;;;;;;;8.69;45.83;102189.78;4994579;28;20052;-78
2021/12/21 11:52:55;;;;;;;4.95;2.75;;;;;;;8.78;45.58;102181.31;5028060;28;20053;-78
2021/12/21 11:55:26;;;;;;;5.82;3.00;;;;;;;8.84;44.93;102172.94;5029509;28;20562;-78
2021/12/21 11:58:00;;;;;;;6.03;2.67;;;;;;;8.91;45.50;102176.28;5044784;28;20046;-78
2021/12/21 12:00:35;;;;;;;4.68;2.35;;;;;;;8.97;44.62;102173.38;5030171;28;20045;-78
2021/12/21 12:03:13;;;;;;;6.97;2.85;;;;;;;9.01;44.12;102175.00;5028809;28;20053;-78
2021/12/21 12:05:50;;;;;;;4.80;2.47;;;;;;;9.06;44.62;102170.28;5008697;28;20127;-78
2021/12/21 12:08:23;;;;;;;4.22;2.55;;;;;;;9.09;44.97;102159.31;4992221;28;20045;-78
2021/12/21 12:10:54;;;;;;;4.30;2.50;;;;;;;9.14;44.79;102160.91;5029885;28;20049;-78
2021/12/21 12:13:33;;;;;;;4.25;2.55;;;;;;;9.20;43.14;102162.50;5026516;28;20079;-78
2021/12/21 12:16:14;;;;;;;5.40;2.58;;;;;;;9.19;43.08;102165.25;5017502;28;20072;-78
2021/12/21 12:18:44;;;;;;;5.10;2.40;;;;;;;9.16;43.80;102161.72;5017454;28;20084;-76
2021/12/21 12:21:18;;;;;;;4.18;2.17;;;;;;;9.18;42.82;102164.38;5027611;28;20076;-78
2021/12/21 12:23:53;;;;;;;3.97;2.22;;;;;;;9.18;43.13;102169.81;5027004;28;20053;-77
2021/12/21 12:26:22;;;;;;;4.00;2.13;;;;;;;9.16;43.58;102167.13;5030689;28;20068;-77
2021/12/21 12:28:50;;;;;;;4.78;2.13;;;;;;;9.15;44.15;102168.09;5027135;28;20049;-76
2021/12/21 12:31:31;;;;;;;6.40;2.40;;;;;;;9.18;42.93;102164.38;5027470;28;20124;-77
2021/12/21 12:33:58;;;;;;;4.70;2.15;;;;;;;9.16;43.63;102164.44;5009525;28;20077;-78
2021/12/21 12:36:50;;;;;;;4.25;2.03;;;;;;;9.22;42.93;102160.63;5027221;28;20045;-78
2021/12/21 12:39:35;;;;;;;3.75;2.10;;;;;;;9.23;42.85;102159.66;5025234;28;20472;-78
2021/12/21 12:42:07;;;;;;;3.83;1.98;;;;;;;9.28;43.50;102156.75;5036424;28;20526;-78
2021/12/21 12:44:37;;;;;;;3.17;1.90;;;;;;;9.30;43.83;102163.00;5024503;28;20065;-78
2021/12/21 12:47:08;;;;;;;3.50;2.17;;;;;;;9.33;43.45;102149.31;5025072;28;20046;-79
2021/12/21 12:49:37;;;;;;;4.70;2.17;;;;;;;9.34;43.52;102156.50;5027691;28;20060;-78